sensor_id;sensor_type;location;lat;lon;timestamp;temperature;humidity
24638;DHT22;12773;50.162;8.548;2023-01-15T00:00:11;10.80;99.90
24638;DHT22;12773;50.162;8.548;2023-01-15T00:02:59;10.80;99.90
24638;DHT22;12773;50.162;8.548;2023-01-15T00:05:46;10.80;99.90
24638;DHT22;12773;50.162;8.548;2023-01-15T00:08:34;10.80;99.90
24638;DHT22;12773;50.162;8.548;2023-01-15T00:11:22;10.90;99.90
24638;DHT22;12773;50.162;8.548;2023-01-15T00:14:10;11.00;99.90
24638;DHT22;12773;50.162;8.548;2023-01-15T00:16:57;11.00;99.90
24638;DHT22;12773;50.162;8.548;2023-01-15T00:19:45;11.00;99.90
24638;DHT22;12773;50.162;8.548;2023-01-15T00:22:34;10.90;99.90
24638;DHT22;12773;50.162;8.548;2023-01-15T00:25:21;10.90;99.90
24638;DHT22;12773;50.162;8.548;2023-01-15T00:28:26;10.80;99.90
24638;DHT22;12773;50.162;8.548;2023-01-15T00:31:14;10.90;99.90
24638;DHT22;12773;50.162;8.548;2023-01-15T00:34:02;10.80;99.90
24638;DHT22;12773;50.162;8.548;2023-01-15T00:36:49;10.90;99.90
24638;DHT22;12773;50.162;8.548;2023-01-15T00:39:37;10.80;99.90
24638;DHT22;12773;50.162;8.548;2023-01-15T00:42:24;10.80;99.90
24638;DHT22;12773;50.162;8.548;2023-01-15T00:45:13;10.80;99.90
24638;DHT22;12773;50.162;8.548;2023-01-15T00:48:01;10.80;99.90
24638;DHT22;12773;50.162;8.548;2023-01-15T00:50:48;10.80;99.90
24638;DHT22;12773;50.162;8.548;2023-01-15T00:53:35;10.80;99.90
24638;DHT22;12773;50.162;8.548;2023-01-15T00:56:22;10.90;99.90
24638;DHT22;12773;50.162;8.548;2023-01-15T00:59:09;10.90;99.90
24638;DHT22;12773;50.162;8.548;2023-01-15T01:01:57;10.90;99.90
24638;DHT22;12773;50.162;8.548;2023-01-15T01:04:44;10.90;99.90
24638;DHT22;12773;50.162;8.548;2023-01-15T01:07:32;11.00;99.90
24638;DHT22;12773;50.162;8.548;2023-01-15T01:10:19;11.20;99.90
24638;DHT22;12773;50.162;8.548;2023-01-15T01:13:07;11.30;99.90
24638;DHT22;12773;50.162;8.548;2023-01-15T01:15:54;11.30;99.90
24638;DHT22;12773;50.162;8.548;2023-01-15T01:18:42;11.10;99.90
24638;DHT22;12773;50.162;8.548;2023-01-15T01:21:30;11.10;99.90
24638;DHT22;12773;50.162;8.548;2023-01-15T01:24:20;11.10;99.90
24638;DHT22;12773;50.162;8.548;2023-01-15T01:27:08;11.00;99.90
24638;DHT22;12773;50.162;8.548;2023-01-15T01:29:56;11.00;99.90
24638;DHT22;12773;50.162;8.548;2023-01-15T01:32:44;11.10;99.90
24638;DHT22;12773;50.162;8.548;2023-01-15T01:35:32;11.00;99.90
24638;DHT22;12773;50.162;8.548;2023-01-15T01:38:21;10.90;99.90
24638;DHT22;12773;50.162;8.548;2023-01-15T01:41:08;10.90;99.90
24638;DHT22;12773;50.162;8.548;2023-01-15T01:44:02;10.90;99.90
24638;DHT22;12773;50.162;8.548;2023-01-15T01:46:49;11.00;99.90
24638;DHT22;12773;50.162;8.548;2023-01-15T01:49:38;10.90;99.90
24638;DHT22;12773;50.162;8.548;2023-01-15T01:52:30;11.00;99.90
24638;DHT22;12773;50.162;8.548;2023-01-15T01:55:19;11.10;99.90
24638;DHT22;12773;50.162;8.548;2023-01-15T01:58:09;11.10;99.90
24638;DHT22;12773;50.162;8.548;2023-01-15T02:00:58;11.00;99.90
24638;DHT22;12773;50.162;8.548;2023-01-15T02:03:47;11.00;99.90
24638;DHT22;12773;50.162;8.548;2023-01-15T02:06:36;11.10;99.90
24638;DHT22;12773;50.162;8.548;2023-01-15T02:09:23;11.10;99.90
24638;DHT22;12773;50.162;8.548;2023-01-15T02:12:18;11.00;99.90
24638;DHT22;12773;50.162;8.548;2023-01-15T02:15:14;10.90;99.90
24638;DHT22;12773;50.162;8.548;2023-01-15T02:18:21;10.40;99.90
24638;DHT22;12773;50.162;8.548;2023-01-15T02:21:22;10.20;99.90
24638;DHT22;12773;50.162;8.548;2023-01-15T02:24:09;10.10;99.90
24638;DHT22;12773;50.162;8.548;2023-01-15T02:27:10;10.20;99.90
24638;DHT22;12773;50.162;8.548;2023-01-15T02:29:58;10.20;99.90
24638;DHT22;12773;50.162;8.548;2023-01-15T02:32:56;10.00;99.90
24638;DHT22;12773;50.162;8.548;2023-01-15T02:35:47;9.90;99.90
24638;DHT22;12773;50.162;8.548;2023-01-15T02:38:39;9.90;99.90
24638;DHT22;12773;50.162;8.548;2023-01-15T02:41:35;9.90;99.90
24638;DHT22;12773;50.162;8.548;2023-01-15T02:44:22;9.80;99.90
24638;DHT22;12773;50.162;8.548;2023-01-15T02:47:11;9.80;99.90
24638;DHT22;12773;50.162;8.548;2023-01-15T02:50:01;9.70;99.90
24638;DHT22;12773;50.162;8.548;2023-01-15T02:52:54;9.60;99.90
24638;DHT22;12773;50.162;8.548;2023-01-15T02:55:43;9.60;99.90
24638;DHT22;12773;50.162;8.548;2023-01-15T02:58:35;9.50;99.90
24638;DHT22;12773;50.162;8.548;2023-01-15T03:01:32;9.40;99.90
24638;DHT22;12773;50.162;8.548;2023-01-15T03:04:37;9.30;99.90
24638;DHT22;12773;50.162;8.548;2023-01-15T03:07:28;9.20;99.90
24638;DHT22;12773;50.162;8.548;2023-01-15T03:10:15;9.00;99.90
24638;DHT22;12773;50.162;8.548;2023-01-15T03:13:03;8.90;99.90
24638;DHT22;12773;50.162;8.548;2023-01-15T03:15:55;8.90;99.90
24638;DHT22;12773;50.162;8.548;2023-01-15T03:19:13;8.80;99.90
24638;DHT22;12773;50.162;8.548;2023-01-15T03:22:22;8.60;99.90
24638;DHT22;12773;50.162;8.548;2023-01-15T03:25:15;8.60;99.90
24638;DHT22;12773;50.162;8.548;2023-01-15T03:28:03;8.60;99.90
24638;DHT22;12773;50.162;8.548;2023-01-15T03:30:51;8.60;99.90
24638;DHT22;12773;50.162;8.548;2023-01-15T03:33:40;8.60;99.90
24638;DHT22;12773;50.162;8.548;2023-01-15T03:36:27;8.70;99.90
24638;DHT22;12773;50.162;8.548;2023-01-15T03:39:16;8.80;99.90
24638;DHT22;12773;50.162;8.548;2023-01-15T03:51:02;8.40;99.90
24638;DHT22;12773;50.162;8.548;2023-01-15T03:53:52;8.30;99.90
24638;DHT22;12773;50.162;8.548;2023-01-15T03:57:04;8.20;99.90
24638;DHT22;12773;50.162;8.548;2023-01-15T03:59:53;8.20;99.90
24638;DHT22;12773;50.162;8.548;2023-01-15T04:02:43;8.20;99.90
24638;DHT22;12773;50.162;8.548;2023-01-15T04:05:31;8.30;99.90
24638;DHT22;12773;50.162;8.548;2023-01-15T04:08:20;8.20;99.90
24638;DHT22;12773;50.162;8.548;2023-01-15T04:11:08;8.10;99.90
24638;DHT22;12773;50.162;8.548;2023-01-15T04:13:55;8.00;99.90
24638;DHT22;12773;50.162;8.548;2023-01-15T04:16:42;7.90;99.90
24638;DHT22;12773;50.162;8.548;2023-01-15T04:19:30;7.80;99.90
24638;DHT22;12773;50.162;8.548;2023-01-15T04:22:17;7.70;99.90
24638;DHT22;12773;50.162;8.548;2023-01-15T04:25:05;7.60;99.90
24638;DHT22;12773;50.162;8.548;2023-01-15T04:27:54;7.50;99.90
24638;DHT22;12773;50.162;8.548;2023-01-15T04:30:41;7.50;99.90
24638;DHT22;12773;50.162;8.548;2023-01-15T04:33:29;7.50;99.90
24638;DHT22;12773;50.162;8.548;2023-01-15T04:36:16;7.60;99.90
24638;DHT22;12773;50.162;8.548;2023-01-15T04:39:04;7.60;99.90
24638;DHT22;12773;50.162;8.548;2023-01-15T04:41:51;7.60;99.90
24638;DHT22;12773;50.162;8.548;2023-01-15T04:44:56;7.50;99.90
24638;DHT22;12773;50.162;8.548;2023-01-15T04:47:43;7.40;99.90
24638;DHT22;12773;50.162;8.548;2023-01-15T04:50:31;7.40;99.90
24638;DHT22;12773;50.162;8.548;2023-01-15T04:53:19;7.40;99.90
24638;DHT22;12773;50.162;8.548;2023-01-15T04:56:07;7.40;99.90
24638;DHT22;12773;50.162;8.548;2023-01-15T04:58:54;7.30;99.90
24638;DHT22;12773;50.162;8.548;2023-01-15T05:01:42;7.20;99.90
24638;DHT22;12773;50.162;8.548;2023-01-15T05:04:32;7.20;99.90
24638;DHT22;12773;50.162;8.548;2023-01-15T05:07:19;7.10;99.90
24638;DHT22;12773;50.162;8.548;2023-01-15T05:10:07;7.10;99.90
24638;DHT22;12773;50.162;8.548;2023-01-15T05:12:55;7.10;99.90
24638;DHT22;12773;50.162;8.548;2023-01-15T05:15:42;7.10;99.90
24638;DHT22;12773;50.162;8.548;2023-01-15T05:18:31;7.10;99.90
24638;DHT22;12773;50.162;8.548;2023-01-15T05:21:21;7.00;99.90
24638;DHT22;12773;50.162;8.548;2023-01-15T05:24:16;7.00;99.90
24638;DHT22;12773;50.162;8.548;2023-01-15T05:26:59;7.00;99.90
24638;DHT22;12773;50.162;8.548;2023-01-15T05:29:46;7.00;99.90
24638;DHT22;12773;50.162;8.548;2023-01-15T05:32:33;7.00;99.90
24638;DHT22;12773;50.162;8.548;2023-01-15T05:35:20;7.00;99.90
24638;DHT22;12773;50.162;8.548;2023-01-15T05:38:08;6.90;99.90
24638;DHT22;12773;50.162;8.548;2023-01-15T05:40:55;6.90;99.90
24638;DHT22;12773;50.162;8.548;2023-01-15T05:43:43;7.00;99.90
24638;DHT22;12773;50.162;8.548;2023-01-15T05:46:33;6.90;99.90
24638;DHT22;12773;50.162;8.548;2023-01-15T05:49:24;6.90;99.90
24638;DHT22;12773;50.162;8.548;2023-01-15T05:52:12;6.90;99.90
24638;DHT22;12773;50.162;8.548;2023-01-15T05:54:59;6.90;99.90
24638;DHT22;12773;50.162;8.548;2023-01-15T05:57:47;6.90;99.90
24638;DHT22;12773;50.162;8.548;2023-01-15T06:00:34;6.80;99.90
24638;DHT22;12773;50.162;8.548;2023-01-15T06:03:23;6.90;99.90
24638;DHT22;12773;50.162;8.548;2023-01-15T06:06:12;6.90;99.90
24638;DHT22;12773;50.162;8.548;2023-01-15T06:09:00;6.90;99.90
24638;DHT22;12773;50.162;8.548;2023-01-15T06:11:48;6.90;99.90
24638;DHT22;12773;50.162;8.548;2023-01-15T06:14:35;6.90;99.90
24638;DHT22;12773;50.162;8.548;2023-01-15T06:17:22;6.80;99.90
24638;DHT22;12773;50.162;8.548;2023-01-15T06:20:10;6.60;99.90
24638;DHT22;12773;50.162;8.548;2023-01-15T06:22:58;6.70;99.90
24638;DHT22;12773;50.162;8.548;2023-01-15T06:25:45;6.60;99.90
24638;DHT22;12773;50.162;8.548;2023-01-15T06:28:32;6.60;99.90
24638;DHT22;12773;50.162;8.548;2023-01-15T06:31:22;6.60;99.90
24638;DHT22;12773;50.162;8.548;2023-01-15T06:34:11;6.60;99.90
24638;DHT22;12773;50.162;8.548;2023-01-15T06:36:58;6.60;99.90
24638;DHT22;12773;50.162;8.548;2023-01-15T06:39:45;6.60;99.90
24638;DHT22;12773;50.162;8.548;2023-01-15T06:42:33;6.70;99.90
24638;DHT22;12773;50.162;8.548;2023-01-15T06:45:39;6.60;99.90
24638;DHT22;12773;50.162;8.548;2023-01-15T06:48:45;6.60;99.90
24638;DHT22;12773;50.162;8.548;2023-01-15T06:51:32;6.60;99.90
24638;DHT22;12773;50.162;8.548;2023-01-15T06:54:20;6.50;99.90
24638;DHT22;12773;50.162;8.548;2023-01-15T06:57:08;6.60;99.90
24638;DHT22;12773;50.162;8.548;2023-01-15T06:59:55;6.60;99.90
24638;DHT22;12773;50.162;8.548;2023-01-15T07:02:43;6.70;99.90
24638;DHT22;12773;50.162;8.548;2023-01-15T07:05:30;6.60;99.90
24638;DHT22;12773;50.162;8.548;2023-01-15T07:08:18;6.60;99.90
24638;DHT22;12773;50.162;8.548;2023-01-15T07:11:08;6.60;99.90
24638;DHT22;12773;50.162;8.548;2023-01-15T07:13:55;6.60;99.90
24638;DHT22;12773;50.162;8.548;2023-01-15T07:16:47;6.60;99.90
24638;DHT22;12773;50.162;8.548;2023-01-15T07:19:35;6.60;99.90
24638;DHT22;12773;50.162;8.548;2023-01-15T07:22:22;6.70;99.90
24638;DHT22;12773;50.162;8.548;2023-01-15T07:25:10;6.70;99.90
24638;DHT22;12773;50.162;8.548;2023-01-15T07:27:57;6.70;99.90
24638;DHT22;12773;50.162;8.548;2023-01-15T07:30:44;6.80;99.90
24638;DHT22;12773;50.162;8.548;2023-01-15T07:33:32;6.80;99.90
24638;DHT22;12773;50.162;8.548;2023-01-15T07:36:19;6.80;99.90
24638;DHT22;12773;50.162;8.548;2023-01-15T07:39:10;6.80;99.90
24638;DHT22;12773;50.162;8.548;2023-01-15T07:41:57;6.80;99.90
24638;DHT22;12773;50.162;8.548;2023-01-15T07:45:03;6.90;99.90
24638;DHT22;12773;50.162;8.548;2023-01-15T07:48:10;6.90;99.90
24638;DHT22;12773;50.162;8.548;2023-01-15T07:51:16;6.90;99.90
24638;DHT22;12773;50.162;8.548;2023-01-15T07:54:03;6.90;99.90
24638;DHT22;12773;50.162;8.548;2023-01-15T07:56:52;6.80;99.90
24638;DHT22;12773;50.162;8.548;2023-01-15T07:59:39;6.80;99.90
24638;DHT22;12773;50.162;8.548;2023-01-15T08:02:27;6.90;99.90
24638;DHT22;12773;50.162;8.548;2023-01-15T08:05:15;6.90;99.90
24638;DHT22;12773;50.162;8.548;2023-01-15T08:08:02;6.70;99.90
24638;DHT22;12773;50.162;8.548;2023-01-15T08:10:50;6.70;99.90
24638;DHT22;12773;50.162;8.548;2023-01-15T08:13:56;6.70;99.90
24638;DHT22;12773;50.162;8.548;2023-01-15T08:17:01;6.70;99.90
24638;DHT22;12773;50.162;8.548;2023-01-15T08:19:48;6.70;99.90
24638;DHT22;12773;50.162;8.548;2023-01-15T08:22:36;6.80;99.90
24638;DHT22;12773;50.162;8.548;2023-01-15T08:25:24;6.80;99.90
24638;DHT22;12773;50.162;8.548;2023-01-15T08:28:18;6.90;99.90
24638;DHT22;12773;50.162;8.548;2023-01-15T08:31:07;6.80;99.90
24638;DHT22;12773;50.162;8.548;2023-01-15T08:33:54;6.90;99.90
24638;DHT22;12773;50.162;8.548;2023-01-15T08:36:41;6.90;99.90
24638;DHT22;12773;50.162;8.548;2023-01-15T08:39:29;6.90;99.90
24638;DHT22;12773;50.162;8.548;2023-01-15T08:42:16;6.80;99.90
24638;DHT22;12773;50.162;8.548;2023-01-15T08:45:04;6.90;99.90
24638;DHT22;12773;50.162;8.548;2023-01-15T08:47:55;6.90;99.90
24638;DHT22;12773;50.162;8.548;2023-01-15T08:50:43;6.90;99.90
24638;DHT22;12773;50.162;8.548;2023-01-15T08:53:32;6.90;99.90
24638;DHT22;12773;50.162;8.548;2023-01-15T08:56:20;6.80;99.90
24638;DHT22;12773;50.162;8.548;2023-01-15T08:59:07;6.70;99.90
24638;DHT22;12773;50.162;8.548;2023-01-15T09:01:54;6.70;99.90
24638;DHT22;12773;50.162;8.548;2023-01-15T09:04:43;6.70;99.90
24638;DHT22;12773;50.162;8.548;2023-01-15T09:07:31;6.70;99.90
24638;DHT22;12773;50.162;8.548;2023-01-15T09:10:20;6.70;99.90
24638;DHT22;12773;50.162;8.548;2023-01-15T09:13:07;6.80;99.90
24638;DHT22;12773;50.162;8.548;2023-01-15T09:15:59;6.70;99.90
24638;DHT22;12773;50.162;8.548;2023-01-15T09:18:46;6.80;99.90
24638;DHT22;12773;50.162;8.548;2023-01-15T09:21:34;6.80;99.90
24638;DHT22;12773;50.162;8.548;2023-01-15T09:24:21;6.80;99.90
24638;DHT22;12773;50.162;8.548;2023-01-15T09:27:10;6.80;99.90
24638;DHT22;12773;50.162;8.548;2023-01-15T09:29:58;6.90;99.90
24638;DHT22;12773;50.162;8.548;2023-01-15T09:32:46;6.90;99.90
24638;DHT22;12773;50.162;8.548;2023-01-15T09:35:33;6.90;99.90
24638;DHT22;12773;50.162;8.548;2023-01-15T09:38:21;6.80;99.90
24638;DHT22;12773;50.162;8.548;2023-01-15T09:41:13;6.90;99.90
24638;DHT22;12773;50.162;8.548;2023-01-15T09:48:14;6.90;99.90
24638;DHT22;12773;50.162;8.548;2023-01-15T09:51:39;6.90;99.90
24638;DHT22;12773;50.162;8.548;2023-01-15T09:56:51;6.80;99.90
24638;DHT22;12773;50.162;8.548;2023-01-15T09:59:55;6.70;99.90
24638;DHT22;12773;50.162;8.548;2023-01-15T10:02:44;6.80;99.90
24638;DHT22;12773;50.162;8.548;2023-01-15T10:06:20;6.90;99.90
24638;DHT22;12773;50.162;8.548;2023-01-15T10:08:41;6.90;99.90
24638;DHT22;12773;50.162;8.548;2023-01-15T10:11:37;7.00;99.90
24638;DHT22;12773;50.162;8.548;2023-01-15T10:14:53;6.90;99.90
24638;DHT22;12773;50.162;8.548;2023-01-15T10:17:44;6.90;99.90
24638;DHT22;12773;50.162;8.548;2023-01-15T10:20:59;7.00;99.90
24638;DHT22;12773;50.162;8.548;2023-01-15T10:26:59;7.00;99.90
24638;DHT22;12773;50.162;8.548;2023-01-15T10:29:52;6.90;99.90
24638;DHT22;12773;50.162;8.548;2023-01-15T10:35:36;6.90;99.90
24638;DHT22;12773;50.162;8.548;2023-01-15T10:44:41;6.80;99.90
24638;DHT22;12773;50.162;8.548;2023-01-15T10:47:33;6.80;99.90
24638;DHT22;12773;50.162;8.548;2023-01-15T10:50:25;6.80;99.90
24638;DHT22;12773;50.162;8.548;2023-01-15T10:54:13;6.90;99.90
24638;DHT22;12773;50.162;8.548;2023-01-15T10:56:27;6.80;99.90
24638;DHT22;12773;50.162;8.548;2023-01-15T11:02:46;6.80;99.90
24638;DHT22;12773;50.162;8.548;2023-01-15T11:05:34;6.80;99.90
24638;DHT22;12773;50.162;8.548;2023-01-15T11:08:24;6.80;99.90
24638;DHT22;12773;50.162;8.548;2023-01-15T11:14:36;6.90;99.90
24638;DHT22;12773;50.162;8.548;2023-01-15T11:17:43;6.90;99.90
24638;DHT22;12773;50.162;8.548;2023-01-15T11:20:50;7.00;99.90
24638;DHT22;12773;50.162;8.548;2023-01-15T11:23:38;7.00;99.90
24638;DHT22;12773;50.162;8.548;2023-01-15T11:26:33;7.10;99.90
24638;DHT22;12773;50.162;8.548;2023-01-15T11:29:31;7.30;99.90
24638;DHT22;12773;50.162;8.548;2023-01-15T11:32:24;7.30;99.90
24638;DHT22;12773;50.162;8.548;2023-01-15T11:35:17;7.30;99.90
24638;DHT22;12773;50.162;8.548;2023-01-15T11:38:12;7.30;99.90
24638;DHT22;12773;50.162;8.548;2023-01-15T11:41:01;7.20;99.90
24638;DHT22;12773;50.162;8.548;2023-01-15T11:43:55;7.30;99.90
24638;DHT22;12773;50.162;8.548;2023-01-15T11:47:02;7.30;99.90
24638;DHT22;12773;50.162;8.548;2023-01-15T11:50:17;7.40;99.90
24638;DHT22;12773;50.162;8.548;2023-01-15T11:53:27;7.30;99.90
24638;DHT22;12773;50.162;8.548;2023-01-15T11:56:16;7.30;99.90
24638;DHT22;12773;50.162;8.548;2023-01-15T11:59:08;7.40;99.90
24638;DHT22;12773;50.162;8.548;2023-01-15T12:01:57;7.70;99.90
24638;DHT22;12773;50.162;8.548;2023-01-15T12:04:53;8.10;99.90
24638;DHT22;12773;50.162;8.548;2023-01-15T12:07:44;8.50;99.90
24638;DHT22;12773;50.162;8.548;2023-01-15T12:10:43;8.80;99.90
24638;DHT22;12773;50.162;8.548;2023-01-15T12:14:08;9.10;99.90
24638;DHT22;12773;50.162;8.548;2023-01-15T12:17:01;9.30;99.90
24638;DHT22;12773;50.162;8.548;2023-01-15T12:19:54;9.30;99.90
24638;DHT22;12773;50.162;8.548;2023-01-15T12:26:07;9.40;99.90
24638;DHT22;12773;50.162;8.548;2023-01-15T12:28:57;9.30;99.90
24638;DHT22;12773;50.162;8.548;2023-01-15T12:31:50;9.30;99.90
24638;DHT22;12773;50.162;8.548;2023-01-15T12:34:58;9.40;99.90
24638;DHT22;12773;50.162;8.548;2023-01-15T12:38:01;9.50;99.90
24638;DHT22;12773;50.162;8.548;2023-01-15T12:40:55;9.10;99.90
24638;DHT22;12773;50.162;8.548;2023-01-15T12:43:32;9.00;99.90
24638;DHT22;12773;50.162;8.548;2023-01-15T12:46:40;9.10;99.90
24638;DHT22;12773;50.162;8.548;2023-01-15T12:49:39;8.90;99.90
24638;DHT22;12773;50.162;8.548;2023-01-15T12:52:27;9.00;99.90
24638;DHT22;12773;50.162;8.548;2023-01-15T12:55:21;8.90;99.90
24638;DHT22;12773;50.162;8.548;2023-01-15T12:58:33;9.20;99.90
24638;DHT22;12773;50.162;8.548;2023-01-15T13:04:33;10.30;99.90
24638;DHT22;12773;50.162;8.548;2023-01-15T13:10:18;10.30;99.90
24638;DHT22;12773;50.162;8.548;2023-01-15T13:13:21;9.90;99.90
24638;DHT22;12773;50.162;8.548;2023-01-15T13:16:21;9.70;99.90
24638;DHT22;12773;50.162;8.548;2023-01-15T13:19:31;9.60;99.90
24638;DHT22;12773;50.162;8.548;2023-01-15T13:22:24;9.50;99.90
24638;DHT22;12773;50.162;8.548;2023-01-15T13:28:39;9.20;99.90
24638;DHT22;12773;50.162;8.548;2023-01-15T13:34:45;8.70;99.90
24638;DHT22;12773;50.162;8.548;2023-01-15T13:37:48;8.90;99.90
24638;DHT22;12773;50.162;8.548;2023-01-15T13:40:41;8.80;99.90
24638;DHT22;12773;50.162;8.548;2023-01-15T13:43:38;8.50;99.90
24638;DHT22;12773;50.162;8.548;2023-01-15T13:46:26;8.50;99.90
24638;DHT22;12773;50.162;8.548;2023-01-15T13:49:22;8.40;99.90
24638;DHT22;12773;50.162;8.548;2023-01-15T13:52:25;8.60;99.90
24638;DHT22;12773;50.162;8.548;2023-01-15T13:58:18;8.90;99.90
24638;DHT22;12773;50.162;8.548;2023-01-15T14:01:21;9.00;99.90
24638;DHT22;12773;50.162;8.548;2023-01-15T14:04:13;9.00;99.90
24638;DHT22;12773;50.162;8.548;2023-01-15T14:07:03;8.90;99.90
24638;DHT22;12773;50.162;8.548;2023-01-15T14:09:53;8.80;99.90
24638;DHT22;12773;50.162;8.548;2023-01-15T14:12:49;8.60;99.90
24638;DHT22;12773;50.162;8.548;2023-01-15T14:15:50;8.60;99.90
24638;DHT22;12773;50.162;8.548;2023-01-15T14:25:15;8.80;99.90
24638;DHT22;12773;50.162;8.548;2023-01-15T14:36:59;8.30;99.90
24638;DHT22;12773;50.162;8.548;2023-01-15T14:39:52;8.30;99.90
24638;DHT22;12773;50.162;8.548;2023-01-15T14:42:42;8.20;99.90
24638;DHT22;12773;50.162;8.548;2023-01-15T14:45:48;8.30;99.90
24638;DHT22;12773;50.162;8.548;2023-01-15T14:48:38;8.20;99.90
24638;DHT22;12773;50.162;8.548;2023-01-15T14:51:27;8.30;99.90
24638;DHT22;12773;50.162;8.548;2023-01-15T14:54:17;8.30;99.90
24638;DHT22;12773;50.162;8.548;2023-01-15T14:57:07;8.30;99.90
24638;DHT22;12773;50.162;8.548;2023-01-15T14:59:57;8.30;99.90
24638;DHT22;12773;50.162;8.548;2023-01-15T15:02:47;8.40;99.90
24638;DHT22;12773;50.162;8.548;2023-01-15T15:05:35;8.40;99.90
24638;DHT22;12773;50.162;8.548;2023-01-15T15:08:24;8.50;99.90
24638;DHT22;12773;50.162;8.548;2023-01-15T15:11:17;8.60;99.90
24638;DHT22;12773;50.162;8.548;2023-01-15T15:14:06;8.60;99.90
24638;DHT22;12773;50.162;8.548;2023-01-15T15:16:57;8.70;99.90
24638;DHT22;12773;50.162;8.548;2023-01-15T15:19:48;8.50;99.90
24638;DHT22;12773;50.162;8.548;2023-01-15T15:22:38;8.20;99.90
24638;DHT22;12773;50.162;8.548;2023-01-15T15:25:28;8.10;99.90
24638;DHT22;12773;50.162;8.548;2023-01-15T15:28:16;8.20;99.90
24638;DHT22;12773;50.162;8.548;2023-01-15T15:31:03;8.20;99.90
24638;DHT22;12773;50.162;8.548;2023-01-15T15:33:53;8.30;99.90
24638;DHT22;12773;50.162;8.548;2023-01-15T15:36:43;8.30;99.90
24638;DHT22;12773;50.162;8.548;2023-01-15T15:42:50;8.20;99.90
24638;DHT22;12773;50.162;8.548;2023-01-15T15:45:56;8.00;99.90
24638;DHT22;12773;50.162;8.548;2023-01-15T15:49:01;8.00;99.90
24638;DHT22;12773;50.162;8.548;2023-01-15T15:51:51;7.80;99.90
24638;DHT22;12773;50.162;8.548;2023-01-15T15:54:44;8.00;99.90
24638;DHT22;12773;50.162;8.548;2023-01-15T15:57:30;7.90;99.90
24638;DHT22;12773;50.162;8.548;2023-01-15T16:00:26;8.00;99.90
24638;DHT22;12773;50.162;8.548;2023-01-15T16:03:23;8.00;99.90
24638;DHT22;12773;50.162;8.548;2023-01-15T16:06:16;8.00;99.90
24638;DHT22;12773;50.162;8.548;2023-01-15T16:09:01;8.00;99.90
24638;DHT22;12773;50.162;8.548;2023-01-15T16:11:51;8.00;99.90
24638;DHT22;12773;50.162;8.548;2023-01-15T16:14:40;7.90;99.90
24638;DHT22;12773;50.162;8.548;2023-01-15T16:17:28;7.90;99.90
24638;DHT22;12773;50.162;8.548;2023-01-15T16:20:17;7.80;99.90
24638;DHT22;12773;50.162;8.548;2023-01-15T16:23:17;7.50;99.90
24638;DHT22;12773;50.162;8.548;2023-01-15T16:26:13;7.50;99.90
24638;DHT22;12773;50.162;8.548;2023-01-15T16:29:02;7.50;99.90
24638;DHT22;12773;50.162;8.548;2023-01-15T16:31:51;7.30;99.90
24638;DHT22;12773;50.162;8.548;2023-01-15T16:34:41;7.30;99.90
24638;DHT22;12773;50.162;8.548;2023-01-15T16:37:29;7.20;99.90
24638;DHT22;12773;50.162;8.548;2023-01-15T16:40:28;7.30;99.90
24638;DHT22;12773;50.162;8.548;2023-01-15T16:43:18;7.30;99.90
24638;DHT22;12773;50.162;8.548;2023-01-15T16:46:18;7.30;99.90
24638;DHT22;12773;50.162;8.548;2023-01-15T16:55:39;7.20;99.90
24638;DHT22;12773;50.162;8.548;2023-01-15T16:58:37;7.20;99.90
24638;DHT22;12773;50.162;8.548;2023-01-15T17:01:40;7.20;99.90
24638;DHT22;12773;50.162;8.548;2023-01-15T17:04:30;7.20;99.90
24638;DHT22;12773;50.162;8.548;2023-01-15T17:10:25;7.20;99.90
24638;DHT22;12773;50.162;8.548;2023-01-15T17:13:19;7.20;99.90
24638;DHT22;12773;50.162;8.548;2023-01-15T17:19:08;7.20;99.90
24638;DHT22;12773;50.162;8.548;2023-01-15T17:21:52;7.20;99.90
24638;DHT22;12773;50.162;8.548;2023-01-15T17:24:48;7.10;99.90
24638;DHT22;12773;50.162;8.548;2023-01-15T17:27:35;7.10;99.90
24638;DHT22;12773;50.162;8.548;2023-01-15T17:30:23;7.10;99.90
24638;DHT22;12773;50.162;8.548;2023-01-15T17:33:12;7.10;99.90
24638;DHT22;12773;50.162;8.548;2023-01-15T17:36:00;7.00;99.90
24638;DHT22;12773;50.162;8.548;2023-01-15T17:38:48;6.90;99.90
24638;DHT22;12773;50.162;8.548;2023-01-15T17:41:35;6.90;99.90
24638;DHT22;12773;50.162;8.548;2023-01-15T17:44:23;7.00;99.90
24638;DHT22;12773;50.162;8.548;2023-01-15T17:47:10;6.90;99.90
24638;DHT22;12773;50.162;8.548;2023-01-15T17:49:58;6.90;99.90
24638;DHT22;12773;50.162;8.548;2023-01-15T17:52:46;6.90;99.90
24638;DHT22;12773;50.162;8.548;2023-01-15T17:55:33;6.90;99.90
24638;DHT22;12773;50.162;8.548;2023-01-15T17:58:39;6.80;99.90
24638;DHT22;12773;50.162;8.548;2023-01-15T18:01:45;6.80;99.90
24638;DHT22;12773;50.162;8.548;2023-01-15T18:04:53;6.80;99.90
24638;DHT22;12773;50.162;8.548;2023-01-15T18:08:01;6.70;99.90
24638;DHT22;12773;50.162;8.548;2023-01-15T18:10:50;6.70;99.90
24638;DHT22;12773;50.162;8.548;2023-01-15T18:13:37;6.60;99.90
24638;DHT22;12773;50.162;8.548;2023-01-15T18:16:27;6.60;99.90
24638;DHT22;12773;50.162;8.548;2023-01-15T18:19:15;6.60;99.90
24638;DHT22;12773;50.162;8.548;2023-01-15T18:22:02;6.60;99.90
24638;DHT22;12773;50.162;8.548;2023-01-15T18:24:49;6.60;99.90
24638;DHT22;12773;50.162;8.548;2023-01-15T18:27:37;6.60;99.90
24638;DHT22;12773;50.162;8.548;2023-01-15T18:30:26;6.60;99.90
24638;DHT22;12773;50.162;8.548;2023-01-15T18:33:14;6.70;99.90
24638;DHT22;12773;50.162;8.548;2023-01-15T18:36:05;6.60;99.90
24638;DHT22;12773;50.162;8.548;2023-01-15T18:38:52;6.70;99.90
24638;DHT22;12773;50.162;8.548;2023-01-15T18:41:41;6.70;99.90
24638;DHT22;12773;50.162;8.548;2023-01-15T18:44:30;6.60;99.90
24638;DHT22;12773;50.162;8.548;2023-01-15T18:47:36;6.60;99.90
24638;DHT22;12773;50.162;8.548;2023-01-15T18:50:25;6.60;99.90
24638;DHT22;12773;50.162;8.548;2023-01-15T18:53:13;6.60;99.90
24638;DHT22;12773;50.162;8.548;2023-01-15T18:56:04;6.70;99.90
24638;DHT22;12773;50.162;8.548;2023-01-15T18:58:52;6.70;99.90
24638;DHT22;12773;50.162;8.548;2023-01-15T19:01:41;6.70;99.90
24638;DHT22;12773;50.162;8.548;2023-01-15T19:04:28;6.70;99.90
24638;DHT22;12773;50.162;8.548;2023-01-15T19:07:16;6.80;99.90
24638;DHT22;12773;50.162;8.548;2023-01-15T19:10:04;6.80;99.90
24638;DHT22;12773;50.162;8.548;2023-01-15T19:12:51;6.80;99.90
24638;DHT22;12773;50.162;8.548;2023-01-15T19:15:40;6.80;99.90
24638;DHT22;12773;50.162;8.548;2023-01-15T19:18:46;6.60;99.90
24638;DHT22;12773;50.162;8.548;2023-01-15T19:21:35;6.70;99.90
24638;DHT22;12773;50.162;8.548;2023-01-15T19:24:22;6.70;99.90
24638;DHT22;12773;50.162;8.548;2023-01-15T19:27:09;6.70;99.90
24638;DHT22;12773;50.162;8.548;2023-01-15T19:29:56;6.70;99.90
24638;DHT22;12773;50.162;8.548;2023-01-15T19:32:45;6.80;99.90
24638;DHT22;12773;50.162;8.548;2023-01-15T19:35:33;6.90;99.90
24638;DHT22;12773;50.162;8.548;2023-01-15T19:38:22;6.80;99.90
24638;DHT22;12773;50.162;8.548;2023-01-15T19:41:10;6.80;99.90
24638;DHT22;12773;50.162;8.548;2023-01-15T19:44:15;6.80;99.90